Philadelphia, Pennsylvania
Current Conditions -  °F | °C
As of 6:31 AM on Wednesday 26 Nov 2014 (Local Time) from KPHL Reporting Station
Moderate Rain Moderate Rain  
Wind Chill: 41°   Ceiling: 3500
Heat Index: 44°   Visibility: 6mi
Dew Point: 37°   Wind: 6mph
Humidity: 76%   Direction: 30°NNE
Pressure: 30.12"   Gusts: NA
Location:  39.95°N, 75.16°W
Report Text: KPHL 261131Z 03005KT 6SM RA SCT016 OVC035 07/03 A3012 RMK AO2 P0003 T00670028 $
Loading
Personal Weather Stations






























Interactive Weather Map New forecast layout! Learn more

10-Day Weather Forecast

Advertisements
Track Severe Weather on mobile